Hewlett Harbor, New York
Current Conditions -  °F | °C
As of 4:51 AM on Monday 26 Jan 2015 (Local Time) from KJFK Reporting Station
Light Snow Light Snow  
Wind Chill: 14°   Ceiling: 3700
Heat Index: 26°   Visibility: 8mi
Dew Point: 13°   Wind: 15mph
Humidity: 58%   Direction: 40°NE
Pressure: 30.03"   Gusts: NA
Location:  40.637°N, 73.6912°W
Report Text: KJFK 260951Z 04013KT 8SM -SN OVC037 M03/M11 A3003 RMK AO2 SLP170 P0000 T10331106 $
Loading
Personal Weather Stations






























Interactive Weather Map New forecast layout! Learn more

10-Day Weather Forecast

Advertisements
Track Severe Weather on mobile